To NAV CANADA Home Page Login to a new session Search on AWWS site Disclaimer Vers la page française équivalente Tips FAQ What's new on the site To the Forecasts and Observations / NOTAM section To "File a Flight Plan" website Publications and other links Update of the User's profile FIC Telephone Numbers My Weather Data Folder Route Weather Data Regional Weather Data Local Weather Data To the Forecasts and Observations / NOTAM section
Request Generated 04/24/2019 at 16:01:31 UTC . Weather information available at that time is displayed.

METAR/TAF

MASSET/BC    

SPECI CZMT 241551Z 18009KT 15SM -RA FEW004 FEW008 SCT015 BKN020 OVC030 04/03 A3040 RMK CF1SC1SC3SC3SC1 CF TR SLP297=
METAR CZMT 241500Z 18006KT 15SM FEW004 FEW008 FEW020 SCT040 OVC200 03/03 A3039 RMK CF1SC1SC1SC2CI4 CF TR PCPN DIST SE+W SLP292=
METAR CZMT 241400Z 18007KT 15SM FEW008 SCT020 BKN040 OVC200 03/02 A3038 RMK CU1SC3SC2CI2 SH DIST NW SLP288=
LWIS CZMT 241300Z AUTO 18005KT 02/01 A3037=

TAF AMD CZMT 241559Z 2415/2501 18005KT P6SM FEW020 SCT040 TEMPO
2415/2419 P6SM -SHRA BKN020 OVC040
FM241900 22006KT P6SM FEW008 SCT020 BKN040 TEMPO 2419/2501 P6SM
-SHRA SCT008 BKN020 OVC040
RMK NXT FCST BY 241900Z=
Your time UTC time
Weather data provided by Environment Canada and NAV CANADA